createdAt,value
2018-08-16T00:02:17.141Z,44.40
2018-08-16T00:04:48.646Z,41.20
2018-08-16T00:07:19.929Z,45.20
2018-08-16T00:09:51.267Z,42.17
2018-08-16T00:12:22.507Z,42.70
2018-08-16T00:14:53.672Z,43.23
2018-08-16T00:17:24.906Z,42.30
2018-08-16T00:19:56.360Z,44.23
2018-08-16T00:22:27.607Z,42.70
2018-08-16T00:24:58.814Z,40.00
2018-08-16T00:27:30.087Z,42.30
2018-08-16T00:30:01.478Z,42.20
2018-08-16T00:32:32.888Z,42.13
2018-08-16T00:35:04.309Z,43.03
2018-08-16T00:37:35.408Z,40.87
2018-08-16T00:40:07.738Z,44.20
2018-08-16T00:42:38.817Z,42.87
2018-08-16T00:45:11.121Z,45.53
2018-08-16T00:47:42.453Z,45.67
2018-08-16T00:50:16.236Z,43.23
2018-08-16T00:52:47.290Z,41.90
2018-08-16T00:55:19.493Z,37.97
2018-08-16T00:57:50.739Z,34.90
2018-08-16T01:00:21.986Z,35.60
2018-08-16T01:02:53.101Z,34.90
2018-08-16T01:05:24.289Z,35.60
2018-08-16T01:07:55.389Z,31.93
2018-08-16T01:10:26.970Z,33.40
2018-08-16T01:12:58.087Z,33.17
2018-08-16T01:15:29.601Z,36.93
2018-08-16T01:18:00.690Z,33.30
2018-08-16T01:20:32.170Z,36.53
2018-08-16T01:23:03.469Z,34.23
2018-08-16T01:25:34.713Z,36.53
2018-08-16T01:28:05.914Z,37.00
2018-08-16T01:30:37.361Z,35.93
2018-08-16T01:33:08.490Z,35.87
2018-08-16T01:35:39.937Z,37.00
2018-08-16T01:38:11.202Z,38.70
2018-08-16T01:40:43.032Z,39.63
2018-08-16T01:43:14.082Z,36.70
2018-08-16T01:45:45.285Z,36.80
2018-08-16T01:48:16.467Z,38.53
2018-08-16T01:50:47.782Z,39.40
2018-08-16T01:53:18.957Z,40.47
2018-08-16T01:55:51.322Z,40.40
2018-08-16T01:58:22.741Z,40.67
2018-08-16T02:00:53.983Z,40.30
2018-08-16T02:03:25.091Z,39.67
2018-08-16T02:05:56.327Z,39.77
2018-08-16T02:08:27.515Z,39.33
2018-08-16T02:10:59.146Z,39.63
2018-08-16T02:13:30.360Z,40.30
2018-08-16T02:16:01.916Z,42.23
2018-08-16T02:18:33.109Z,38.17
2018-08-16T02:21:04.498Z,38.90
2018-08-16T02:23:35.681Z,39.17
2018-08-16T02:26:06.860Z,38.40
2018-08-16T02:28:37.957Z,36.40
2018-08-16T02:31:09.397Z,39.10
2018-08-16T02:33:40.289Z,37.30
2018-08-16T02:36:11.796Z,36.33
2018-08-16T02:38:43.242Z,36.40
2018-08-16T02:41:14.633Z,37.13
2018-08-16T02:43:45.793Z,36.67
2018-08-16T02:46:17.508Z,38.43
2018-08-16T02:48:48.448Z,36.23
2018-08-16T02:51:21.131Z,39.63
2018-08-16T02:53:52.182Z,34.00
2018-08-16T02:56:24.155Z,37.23
2018-08-16T02:58:55.326Z,37.70
2018-08-16T03:01:26.793Z,36.37
2018-08-16T03:03:57.786Z,36.57
2018-08-16T03:06:28.947Z,35.40
2018-08-16T03:09:00.182Z,35.60
2018-08-16T03:11:31.236Z,35.60
2018-08-16T03:14:02.361Z,33.67
2018-08-16T03:16:33.955Z,31.37
2018-08-16T03:19:05.071Z,32.60
2018-08-16T03:21:36.464Z,34.40
2018-08-16T03:24:07.462Z,33.73
2018-08-16T03:26:39.155Z,32.30
2018-08-16T03:29:10.164Z,30.70
2018-08-16T03:31:41.827Z,32.80
2018-08-16T03:34:12.853Z,30.43
2018-08-16T03:36:44.338Z,30.07
2018-08-16T03:39:15.754Z,27.70
2018-08-16T03:41:47.017Z,29.93
2018-08-16T03:44:18.159Z,30.10
2018-08-16T03:46:49.482Z,29.17
2018-08-16T03:49:20.734Z,30.33
2018-08-16T03:51:51.929Z,31.07
2018-08-16T03:54:23.026Z,30.50
2018-08-16T03:56:55.575Z,30.60
2018-08-16T03:59:26.863Z,29.50
2018-08-16T04:01:58.422Z,28.30
2018-08-16T04:04:29.465Z,29.07
2018-08-16T04:07:01.321Z,28.97
2018-08-16T04:09:32.265Z,28.23
2018-08-16T04:12:03.724Z,30.57
2018-08-16T04:14:34.907Z,26.40
2018-08-16T04:17:06.133Z,25.37
2018-08-16T04:19:37.287Z,26.20
2018-08-16T04:22:08.670Z,24.30
2018-08-16T04:24:39.834Z,24.50
2018-08-16T04:27:11.039Z,23.47
2018-08-16T04:29:42.326Z,22.10
2018-08-16T04:32:13.526Z,23.90
2018-08-16T04:34:44.666Z,26.03
2018-08-16T04:37:16.106Z,24.67
2018-08-16T04:39:47.417Z,23.80
2018-08-16T04:42:18.820Z,22.27
2018-08-16T04:44:50.130Z,21.50
2018-08-16T04:47:21.218Z,22.17
2018-08-16T04:49:52.310Z,20.93
2018-08-16T04:52:23.831Z,20.12
2018-08-16T04:54:54.804Z,17.30
2018-08-16T04:57:27.433Z,20.25
2018-08-16T04:59:58.636Z,21.12
2018-08-16T05:02:30.002Z,19.57
2018-08-16T05:05:01.063Z,18.15
2018-08-16T05:07:32.225Z,20.87
2018-08-16T05:10:03.502Z,21.45
2018-08-16T05:12:34.792Z,21.37
2018-08-16T05:15:07.399Z,21.37
2018-08-16T05:17:39.182Z,20.88
2018-08-16T05:20:12.978Z,18.23
2018-08-16T05:22:44.357Z,19.67
2018-08-16T05:25:15.518Z,21.35
2018-08-16T05:27:46.714Z,20.00
2018-08-16T05:30:17.706Z,21.40
2018-08-16T05:32:49.318Z,20.82
2018-08-16T05:35:20.559Z,20.70
2018-08-16T05:37:51.930Z,21.12
2018-08-16T05:40:23.218Z,20.40
2018-08-16T05:42:54.692Z,19.80
2018-08-16T05:45:26.197Z,20.30
2018-08-16T05:47:57.738Z,21.73
2018-08-16T05:50:28.918Z,18.73
2018-08-16T05:53:00.324Z,20.08
2018-08-16T05:55:31.607Z,21.33
2018-08-16T05:58:03.694Z,20.57
2018-08-16T06:00:34.936Z,18.70
2018-08-16T06:03:06.616Z,20.57
2018-08-16T06:05:37.817Z,20.57
2018-08-16T06:08:09.345Z,19.62
2018-08-16T06:10:40.423Z,20.27
2018-08-16T06:13:12.190Z,19.87
2018-08-16T06:15:43.357Z,19.23
2018-08-16T06:18:15.181Z,19.40
2018-08-16T06:20:46.498Z,18.82
2018-08-16T06:23:17.926Z,20.20
2018-08-16T06:25:49.203Z,18.75
2018-08-16T06:28:20.532Z,21.45
2018-08-16T06:30:51.536Z,19.65
2018-08-16T06:33:22.905Z,19.32
2018-08-16T06:35:54.175Z,18.48
2018-08-16T06:38:25.438Z,18.42
2018-08-16T06:40:56.674Z,19.62
2018-08-16T06:43:27.912Z,20.17
2018-08-16T06:45:59.195Z,18.30
2018-08-16T06:48:30.417Z,21.07
2018-08-16T06:51:01.606Z,17.27
2018-08-16T06:53:33.080Z,18.52
2018-08-16T06:56:04.119Z,18.62
2018-08-16T06:58:36.684Z,19.45
2018-08-16T07:01:07.822Z,18.85
2018-08-16T07:03:39.407Z,20.23
2018-08-16T07:06:10.451Z,20.97
2018-08-16T07:08:41.904Z,19.92
2018-08-16T07:11:12.882Z,22.30
2018-08-16T07:13:44.178Z,23.02
2018-08-16T07:16:15.247Z,19.27
2018-08-16T07:18:46.836Z,18.80
2018-08-16T07:21:17.925Z,21.37
2018-08-16T07:23:49.110Z,20.70
2018-08-16T07:26:20.462Z,22.17
2018-08-16T07:28:51.962Z,21.42
2018-08-16T07:31:23.010Z,21.05
2018-08-16T07:33:54.285Z,21.57
2018-08-16T07:36:25.473Z,21.25
2018-08-16T07:38:56.809Z,20.43
2018-08-16T07:41:28.006Z,21.55
2018-08-16T07:43:59.462Z,22.58
2018-08-16T07:46:30.680Z,22.42
2018-08-16T07:49:01.998Z,21.57
2018-08-16T07:51:33.556Z,21.23
2018-08-16T07:54:04.789Z,20.90
2018-08-16T07:56:36.007Z,20.55
2018-08-16T07:59:08.697Z,21.95
2018-08-16T08:01:39.850Z,20.82
2018-08-16T08:04:11.360Z,23.18
2018-08-16T08:06:42.526Z,23.02
2018-08-16T08:09:13.988Z,22.75
2018-08-16T08:11:44.945Z,21.93
2018-08-16T08:14:16.286Z,22.35
2018-08-16T08:16:47.406Z,22.13
2018-08-16T08:19:18.741Z,25.72
2018-08-16T08:21:49.858Z,24.80
2018-08-16T08:24:21.746Z,23.75
2018-08-16T08:26:53.222Z,24.35
2018-08-16T08:29:24.575Z,24.67
2018-08-16T08:31:55.812Z,23.38
2018-08-16T08:34:27.245Z,24.70
2018-08-16T08:37:08.222Z,23.20
2018-08-16T08:39:39.918Z,23.42
2018-08-16T08:42:10.973Z,25.82
2018-08-16T08:44:42.122Z,24.80
2018-08-16T08:47:13.333Z,28.12
2018-08-16T08:49:44.948Z,28.10
2018-08-16T08:52:16.026Z,29.42
2018-08-16T08:54:57.793Z,30.15
2018-08-16T08:57:39.139Z,28.12
2018-08-16T09:00:11.510Z,28.73
2018-08-16T09:02:42.629Z,30.72
2018-08-16T09:05:14.161Z,29.30
2018-08-16T09:07:45.238Z,28.07
2018-08-16T09:11:24.191Z,29.00
2018-08-16T09:14:06.523Z,29.12
2018-08-16T09:16:40.357Z,30.70
2018-08-16T09:19:12.234Z,33.43
2018-08-16T09:21:43.439Z,32.90
2018-08-16T09:24:14.521Z,34.45
2018-08-16T09:26:46.406Z,35.10
2018-08-16T09:29:27.448Z,34.17
2018-08-16T09:32:08.470Z,33.30
2018-08-16T09:34:39.691Z,34.55
2018-08-16T09:37:11.074Z,32.57
2018-08-16T09:39:42.433Z,34.87
2018-08-16T09:42:14.163Z,36.63
2018-08-16T09:44:45.946Z,34.27
2018-08-16T09:47:27.014Z,31.40
2018-08-16T09:49:58.291Z,32.77
2018-08-16T09:52:29.548Z,29.17
2018-08-16T09:55:00.736Z,28.00
2018-08-16T09:57:31.844Z,32.77
2018-08-16T10:00:03.214Z,30.00
2018-08-16T10:02:36.172Z,29.77
2018-08-16T10:05:07.263Z,28.40
2018-08-16T10:07:38.626Z,26.60
2018-08-16T10:10:09.859Z,28.53
2018-08-16T10:12:41.170Z,28.00
2018-08-16T10:15:12.346Z,26.50
2018-08-16T10:17:43.567Z,29.20
2018-08-16T10:20:14.622Z,29.17
2018-08-16T10:22:46.143Z,26.77
2018-08-16T10:25:17.097Z,27.47
2018-08-16T10:27:48.637Z,27.20
2018-08-16T10:30:19.734Z,26.87
2018-08-16T10:32:50.922Z,26.60
2018-08-16T10:35:22.051Z,26.70
2018-08-16T10:37:53.630Z,27.10
2018-08-16T10:40:24.755Z,29.10
2018-08-16T10:42:56.222Z,27.53
2018-08-16T10:45:27.305Z,26.20
2018-08-16T10:47:58.955Z,24.93
2018-08-16T10:50:30.500Z,28.00
2018-08-16T10:53:01.649Z,27.47
2018-08-16T10:55:33.256Z,27.40
2018-08-16T10:58:04.567Z,28.73
2018-08-16T11:00:35.612Z,29.87
2018-08-16T11:03:09.003Z,29.67
2018-08-16T11:05:40.041Z,26.70
2018-08-16T11:08:12.303Z,28.60
2018-08-16T11:10:43.351Z,27.17
2018-08-16T11:13:14.769Z,27.70
2018-08-16T11:15:46.081Z,30.00
2018-08-16T11:18:17.338Z,26.30
2018-08-16T11:20:48.373Z,28.13
2018-08-16T11:23:19.683Z,27.40
2018-08-16T11:25:50.733Z,27.50
2018-08-16T11:28:21.857Z,31.70
2018-08-16T11:30:52.846Z,28.13
2018-08-16T11:33:24.308Z,28.63
2018-08-16T11:35:55.821Z,26.20
2018-08-16T11:38:27.329Z,28.00
2018-08-16T11:40:58.345Z,29.73
2018-08-16T11:43:29.990Z,32.27
2018-08-16T11:46:01.130Z,29.07
2018-08-16T11:48:32.789Z,35.17
2018-08-16T11:51:04.438Z,27.83
2018-08-16T11:53:35.647Z,29.63
2018-08-16T11:56:06.955Z,29.07
2018-08-16T11:58:38.274Z,31.57
2018-08-16T12:01:10.006Z,33.93
2018-08-16T12:03:42.438Z,34.20
2018-08-16T12:06:13.771Z,29.70
2018-08-16T12:08:45.392Z,32.00
2018-08-16T12:11:16.402Z,32.60
2018-08-16T12:13:47.782Z,33.90
2018-08-16T12:16:19.055Z,30.80
2018-08-16T12:18:51.675Z,31.17
2018-08-16T12:21:22.989Z,32.17
2018-08-16T12:23:54.519Z,31.73
2018-08-16T12:26:25.539Z,32.00
2018-08-16T12:28:57.320Z,32.37
2018-08-16T12:31:28.505Z,30.40
2018-08-16T12:33:59.939Z,34.00
2018-08-16T12:36:30.904Z,31.90
2018-08-16T12:39:02.088Z,35.60
2018-08-16T12:41:33.186Z,35.27
2018-08-16T12:44:04.903Z,35.93
2018-08-16T12:46:36.328Z,37.13
2018-08-16T12:49:07.732Z,36.43
2018-08-16T12:51:38.819Z,36.83
2018-08-16T12:54:10.030Z,36.53
2018-08-16T12:56:42.597Z,36.40
2018-08-16T12:59:13.933Z,38.87
2018-08-16T13:01:45.204Z,38.53
2018-08-16T13:04:17.468Z,37.90
2018-08-16T13:06:48.538Z,39.10
2018-08-16T13:09:19.815Z,40.47
2018-08-16T13:11:50.862Z,36.77
2018-08-16T13:14:22.138Z,38.23
2018-08-16T13:16:53.421Z,37.53
2018-08-16T13:19:24.802Z,36.90
2018-08-16T13:21:55.821Z,36.60
2018-08-16T13:24:26.981Z,40.10
2018-08-16T13:26:58.215Z,39.50
2018-08-16T13:29:29.394Z,42.70
2018-08-16T13:32:00.621Z,40.90
2018-08-16T13:34:31.874Z,40.60
2018-08-16T13:37:03.058Z,41.13
2018-08-16T13:39:34.486Z,43.00
2018-08-16T13:42:05.854Z,42.57
2018-08-16T13:44:37.319Z,42.40
2018-08-16T13:47:08.506Z,42.00
2018-08-16T13:49:39.937Z,41.47
2018-08-16T13:52:10.990Z,39.00
2018-08-16T13:54:42.596Z,39.60
2018-08-16T13:57:13.880Z,41.10
2018-08-16T13:59:45.198Z,43.73
2018-08-16T14:02:16.772Z,39.37
2018-08-16T14:04:49.689Z,41.97
2018-08-16T14:07:20.969Z,37.83
2018-08-16T14:09:52.467Z,35.10
2018-08-16T14:12:23.513Z,33.60
2018-08-16T14:14:54.848Z,34.73
2018-08-16T14:17:26.070Z,32.23
2018-08-16T14:19:57.335Z,32.00
2018-08-16T14:22:28.469Z,29.50
2018-08-16T14:25:01.990Z,29.77
2018-08-16T14:27:33.056Z,29.47
2018-08-16T14:30:04.505Z,31.47
2018-08-16T14:32:35.726Z,31.93
2018-08-16T14:35:07.262Z,30.00
2018-08-16T14:37:38.399Z,28.83
2018-08-16T14:40:10.001Z,29.13
2018-08-16T14:42:41.058Z,27.50
2018-08-16T14:45:12.269Z,28.67
2018-08-16T14:47:44.126Z,26.40
2018-08-16T14:50:15.526Z,25.97
2018-08-16T14:52:48.834Z,25.80
2018-08-16T14:55:20.135Z,26.93
2018-08-16T14:57:51.091Z,31.67
2018-08-16T15:00:22.602Z,27.87
2018-08-16T15:02:53.674Z,31.50
2018-08-16T15:05:26.610Z,29.57
2018-08-16T15:07:57.613Z,28.97
2018-08-16T15:10:28.805Z,29.43
2018-08-16T15:13:00.101Z,30.63
2018-08-16T15:15:31.337Z,28.10
2018-08-16T15:18:02.303Z,33.30
2018-08-16T15:20:33.792Z,33.27
2018-08-16T15:23:04.782Z,32.37
2018-08-16T15:25:35.986Z,32.30
2018-08-16T15:28:07.386Z,35.50
2018-08-16T15:30:38.680Z,33.30
2018-08-16T15:33:10.068Z,31.80
2018-08-16T15:35:41.374Z,32.30
2018-08-16T15:38:12.687Z,31.67
2018-08-16T15:40:44.159Z,30.13
2018-08-16T15:43:15.211Z,32.50
2018-08-16T15:45:46.669Z,32.17
2018-08-16T15:48:17.970Z,32.73
2018-08-16T15:50:49.203Z,30.80
2018-08-16T15:53:20.270Z,32.90
2018-08-16T15:55:51.900Z,34.00
2018-08-16T15:58:22.872Z,32.33
2018-08-16T16:00:54.361Z,34.63
2018-08-16T16:03:25.458Z,32.20
2018-08-16T16:05:57.656Z,34.17
2018-08-16T16:08:28.876Z,31.47
2018-08-16T16:10:59.815Z,34.27
2018-08-16T16:13:31.667Z,31.90
2018-08-16T16:16:03.361Z,31.53
2018-08-16T16:18:35.107Z,28.30
2018-08-16T16:21:06.482Z,30.50
2018-08-16T16:23:37.526Z,30.60
2018-08-16T16:26:09.204Z,30.30
2018-08-16T16:28:40.284Z,30.90
2018-08-16T16:31:12.310Z,30.57
2018-08-16T16:33:43.499Z,29.43
2018-08-16T16:36:14.582Z,30.83
2018-08-16T16:38:45.849Z,30.93
2018-08-16T16:41:17.428Z,31.00
2018-08-16T16:43:48.617Z,28.57
2018-08-16T16:46:20.205Z,27.27
2018-08-16T16:48:51.492Z,29.80
2018-08-16T16:51:23.102Z,29.23
2018-08-16T16:53:54.370Z,30.23
2018-08-16T16:56:25.578Z,28.77
2018-08-16T16:58:56.700Z,30.30
2018-08-16T17:01:27.982Z,30.20
2018-08-16T17:03:59.236Z,28.57
2018-08-16T17:06:31.611Z,28.33
2018-08-16T17:09:02.701Z,30.20
2018-08-16T17:11:33.883Z,28.30
2018-08-16T17:14:05.236Z,27.17
2018-08-16T17:16:36.585Z,29.17
2018-08-16T17:19:07.898Z,27.00
2018-08-16T17:21:39.069Z,29.27
2018-08-16T17:24:10.405Z,25.77
2018-08-16T17:26:41.502Z,25.07
2018-08-16T17:29:12.593Z,25.27
2018-08-16T17:31:44.169Z,22.47
2018-08-16T17:34:15.474Z,25.30
2018-08-16T17:36:47.215Z,25.50
2018-08-16T17:39:18.490Z,25.47
2018-08-16T17:41:49.605Z,27.87
2018-08-16T17:44:20.869Z,27.50
2018-08-16T17:46:52.160Z,27.47
2018-08-16T17:49:23.748Z,27.37
2018-08-16T17:51:55.169Z,28.73
2018-08-16T17:54:26.181Z,29.00
2018-08-16T17:56:57.592Z,28.97
2018-08-16T17:59:28.723Z,28.43
2018-08-16T18:02:00.136Z,28.60
2018-08-16T18:04:31.181Z,29.20
2018-08-16T18:07:04.334Z,27.60
2018-08-16T18:09:35.320Z,29.00
2018-08-16T18:12:06.753Z,27.83
2018-08-16T18:14:37.689Z,26.67
2018-08-16T18:17:09.444Z,28.10
2018-08-16T18:19:40.498Z,27.77
2018-08-16T18:22:11.597Z,29.63
2018-08-16T18:24:42.795Z,25.20
2018-08-16T18:27:13.906Z,25.70
2018-08-16T18:29:44.988Z,26.80
2018-08-16T18:32:16.819Z,25.57
2018-08-16T18:34:48.091Z,26.93
2018-08-16T18:37:19.250Z,28.77
2018-08-16T18:39:50.460Z,29.80
2018-08-16T18:42:21.693Z,28.10
2018-08-16T18:44:53.112Z,29.60
2018-08-16T18:47:24.539Z,28.60
2018-08-16T18:49:55.578Z,26.20
2018-08-16T18:52:26.962Z,29.60
2018-08-16T18:54:58.091Z,27.73
2018-08-16T18:57:29.733Z,24.73
2018-08-16T19:00:00.856Z,28.73
2018-08-16T19:02:32.051Z,26.67
2018-08-16T19:05:03.353Z,25.87
2018-08-16T19:07:35.550Z,26.60
2018-08-16T19:10:06.852Z,26.00
2018-08-16T19:12:38.070Z,27.53
2018-08-16T19:15:09.302Z,24.80
2018-08-16T19:17:40.958Z,26.80
2018-08-16T19:20:12.078Z,26.37
2018-08-16T19:22:43.716Z,25.70
2018-08-16T19:25:14.785Z,30.97
2018-08-16T19:27:46.262Z,26.27
2018-08-16T19:30:17.563Z,25.17
2018-08-16T19:32:48.922Z,25.13
2018-08-16T19:35:20.063Z,26.20
2018-08-16T19:37:51.478Z,25.13
2018-08-16T19:40:22.466Z,24.03
2018-08-16T19:42:53.669Z,25.60
2018-08-16T19:45:24.748Z,25.50
2018-08-16T19:47:56.021Z,26.47
2018-08-16T19:50:27.145Z,27.63
2018-08-16T19:52:58.492Z,24.67
2018-08-16T19:55:29.730Z,26.13
2018-08-16T19:58:01.208Z,26.70
2018-08-16T20:00:32.554Z,26.00
2018-08-16T20:03:03.915Z,27.47
2018-08-16T20:05:34.968Z,26.70
2018-08-16T20:08:07.354Z,28.80
2018-08-16T20:10:38.550Z,28.40
2018-08-16T20:13:10.055Z,27.90
2018-08-16T20:15:41.190Z,29.70
2018-08-16T20:18:12.722Z,30.47
2018-08-16T20:20:43.844Z,30.27
2018-08-16T20:23:15.150Z,30.83
2018-08-16T20:25:46.254Z,30.37
2018-08-16T20:28:18.015Z,33.80
2018-08-16T20:30:49.044Z,32.60
2018-08-16T20:33:20.550Z,33.87
2018-08-16T20:35:51.742Z,34.67
2018-08-16T20:38:22.967Z,35.97
2018-08-16T20:40:54.049Z,38.00
2018-08-16T20:43:26.594Z,36.87
2018-08-16T20:45:57.694Z,36.13
2018-08-16T20:48:29.189Z,37.00
2018-08-16T20:51:00.442Z,41.20
2018-08-16T20:53:31.762Z,45.37
2018-08-16T20:56:02.786Z,46.73
2018-08-16T20:58:34.239Z,48.70
2018-08-16T21:01:05.572Z,49.23
2018-08-16T21:03:37.238Z,48.40
2018-08-16T21:06:09.229Z,47.60
2018-08-16T21:08:40.618Z,53.47
2018-08-16T21:11:11.810Z,49.33
2018-08-16T21:13:43.023Z,49.63
2018-08-16T21:16:14.062Z,52.83
2018-08-16T21:18:45.270Z,52.20
2018-08-16T21:21:16.551Z,50.77
2018-08-16T21:23:47.726Z,48.60
2018-08-16T21:26:18.883Z,48.27
2018-08-16T21:28:50.390Z,51.20
2018-08-16T21:31:21.478Z,52.30
2018-08-16T21:33:52.649Z,54.87
2018-08-16T21:36:23.720Z,51.00
2018-08-16T21:38:54.938Z,50.10
2018-08-16T21:41:26.026Z,51.20
2018-08-16T21:43:58.904Z,48.97
2018-08-16T21:46:30.047Z,51.67
2018-08-16T21:49:01.204Z,51.73
2018-08-16T21:51:32.262Z,53.10
2018-08-16T21:54:03.905Z,52.87
2018-08-16T21:56:34.941Z,53.20
2018-08-16T21:59:06.462Z,52.50
2018-08-16T22:01:37.841Z,51.50
2018-08-16T22:04:09.454Z,53.70
2018-08-16T22:06:50.252Z,54.13
2018-08-16T22:09:21.867Z,53.90
2018-08-16T22:11:52.879Z,53.67
2018-08-16T22:14:24.511Z,57.23
2018-08-16T22:16:57.361Z,57.13
2018-08-16T22:19:28.605Z,57.00
2018-08-16T22:21:59.814Z,54.70
2018-08-16T22:24:31.188Z,54.50
2018-08-16T22:27:02.403Z,56.20
2018-08-16T22:29:33.885Z,56.33
2018-08-16T22:32:05.745Z,56.83
2018-08-16T22:34:37.239Z,55.47
2018-08-16T22:37:08.405Z,55.17
2018-08-16T22:39:39.821Z,56.37
2018-08-16T22:42:10.902Z,56.53
2018-08-16T22:44:42.462Z,51.70
2018-08-16T22:47:13.543Z,53.70
2018-08-16T22:49:44.815Z,53.80
2018-08-16T22:52:15.798Z,55.67
2018-08-16T22:54:47.170Z,55.27
2018-08-16T22:57:18.191Z,56.47
2018-08-16T22:59:49.642Z,58.03
2018-08-16T23:02:20.687Z,55.87
2018-08-16T23:04:52.285Z,54.83
2018-08-16T23:07:23.388Z,55.03
2018-08-16T23:09:54.794Z,56.00
2018-08-16T23:12:25.796Z,54.10
2018-08-16T23:14:57.085Z,54.33
2018-08-16T23:17:28.386Z,54.33
2018-08-16T23:19:59.750Z,56.27
2018-08-16T23:22:30.902Z,52.63
2018-08-16T23:25:02.276Z,53.00
2018-08-16T23:27:33.321Z,50.93
2018-08-16T23:30:04.848Z,48.93
2018-08-16T23:32:35.954Z,51.23
2018-08-16T23:35:07.564Z,48.10
2018-08-16T23:37:38.684Z,51.60
2018-08-16T23:40:12.426Z,49.73
2018-08-16T23:42:43.825Z,50.90
2018-08-16T23:45:15.850Z,50.30
2018-08-16T23:47:56.018Z,52.20
2018-08-16T23:50:28.136Z,51.00
2018-08-16T23:52:59.278Z,51.37
2018-08-16T23:55:30.834Z,51.40
2018-08-16T23:58:02.054Z,50.50
